sensor_id;sensor_type;location;lat;lon;timestamp;P1;durP1;ratioP1;P2;durP2;ratioP2
49946;SDS011;35839;48.662;13.300;2022-09-21T04:49:38;6.07;;;2.40;;
49946;SDS011;35839;48.662;13.300;2022-09-21T04:52:03;9.07;;;3.33;;
49946;SDS011;35839;48.662;13.300;2022-09-21T04:54:28;5.47;;;2.30;;
49946;SDS011;35839;48.662;13.300;2022-09-21T04:56:54;7.43;;;2.93;;
49946;SDS011;35839;48.662;13.300;2022-09-21T04:59:19;4.00;;;2.63;;
49946;SDS011;35839;48.662;13.300;2022-09-21T05:01:44;6.50;;;2.93;;
49946;SDS011;35839;48.662;13.300;2022-09-21T05:04:10;4.17;;;2.77;;
49946;SDS011;35839;48.662;13.300;2022-09-21T05:06:35;6.77;;;3.33;;
49946;SDS011;35839;48.662;13.300;2022-09-21T05:09:00;7.37;;;3.47;;
49946;SDS011;35839;48.662;13.300;2022-09-21T05:11:44;7.93;;;2.97;;
49946;SDS011;35839;48.662;13.300;2022-09-21T05:14:09;7.10;;;3.90;;
49946;SDS011;35839;48.662;13.300;2022-09-21T05:16:35;10.80;;;4.03;;
49946;SDS011;35839;48.662;13.300;2022-09-21T05:19:02;13.57;;;4.13;;
49946;SDS011;35839;48.662;13.300;2022-09-21T05:21:28;7.10;;;4.77;;
49946;SDS011;35839;48.662;13.300;2022-09-21T05:23:54;8.70;;;4.43;;
49946;SDS011;35839;48.662;13.300;2022-09-21T05:26:19;8.43;;;4.60;;
49946;SDS011;35839;48.662;13.300;2022-09-21T05:28:45;6.10;;;3.73;;
49946;SDS011;35839;48.662;13.300;2022-09-21T05:33:51;5.57;;;3.80;;
49946;SDS011;35839;48.662;13.300;2022-09-21T05:38:58;5.30;;;3.67;;
49946;SDS011;35839;48.662;13.300;2022-09-21T05:41:24;6.93;;;3.90;;
49946;SDS011;35839;48.662;13.300;2022-09-21T05:43:49;5.50;;;3.80;;
49946;SDS011;35839;48.662;13.300;2022-09-21T05:46:18;8.70;;;4.03;;
49946;SDS011;35839;48.662;13.300;2022-09-21T05:48:56;7.00;;;4.00;;
49946;SDS011;35839;48.662;13.300;2022-09-21T05:52:15;6.03;;;3.17;;
49946;SDS011;35839;48.662;13.300;2022-09-21T05:57:00;6.27;;;3.73;;
49946;SDS011;35839;48.662;13.300;2022-09-21T06:04:51;5.20;;;3.47;;
49946;SDS011;35839;48.662;13.300;2022-09-21T06:07:20;7.93;;;3.95;;
49946;SDS011;35839;48.662;13.300;2022-09-21T06:09:45;6.40;;;3.60;;
49946;SDS011;35839;48.662;13.300;2022-09-21T06:12:10;15.30;;;5.10;;
49946;SDS011;35839;48.662;13.300;2022-09-21T06:14:36;4.97;;;3.73;;
49946;SDS011;35839;48.662;13.300;2022-09-21T06:17:02;20.97;;;5.53;;
49946;SDS011;35839;48.662;13.300;2022-09-21T06:19:27;9.20;;;4.60;;
49946;SDS011;35839;48.662;13.300;2022-09-21T06:21:53;5.07;;;3.93;;
49946;SDS011;35839;48.662;13.300;2022-09-21T06:24:18;17.93;;;4.57;;
49946;SDS011;35839;48.662;13.300;2022-09-21T06:26:43;12.00;;;4.80;;
49946;SDS011;35839;48.662;13.300;2022-09-21T06:29:08;8.33;;;4.30;;
49946;SDS011;35839;48.662;13.300;2022-09-21T06:31:34;5.20;;;4.13;;
49946;SDS011;35839;48.662;13.300;2022-09-21T06:34:00;14.93;;;4.70;;
49946;SDS011;35839;48.662;13.300;2022-09-21T06:36:25;10.97;;;4.63;;
49946;SDS011;35839;48.662;13.300;2022-09-21T06:38:51;11.40;;;5.33;;
49946;SDS011;35839;48.662;13.300;2022-09-21T06:41:16;15.07;;;5.17;;
49946;SDS011;35839;48.662;13.300;2022-09-21T06:43:41;12.70;;;5.43;;
49946;SDS011;35839;48.662;13.300;2022-09-21T06:46:07;20.73;;;5.13;;
49946;SDS011;35839;48.662;13.300;2022-09-21T06:48:32;38.90;;;5.83;;
49946;SDS011;35839;48.662;13.300;2022-09-21T06:51:00;5.67;;;4.40;;
49946;SDS011;35839;48.662;13.300;2022-09-21T06:53:27;18.33;;;5.70;;
49946;SDS011;35839;48.662;13.300;2022-09-21T06:56:03;12.82;;;4.88;;
49946;SDS011;35839;48.662;13.300;2022-09-21T06:58:30;6.47;;;4.97;;
49946;SDS011;35839;48.662;13.300;2022-09-21T07:00:58;13.80;;;4.73;;
49946;SDS011;35839;48.662;13.300;2022-09-21T07:03:37;9.82;;;5.05;;
49946;SDS011;35839;48.662;13.300;2022-09-21T07:06:03;7.50;;;3.83;;
49946;SDS011;35839;48.662;13.300;2022-09-21T07:08:29;8.50;;;3.87;;
49946;SDS011;35839;48.662;13.300;2022-09-21T07:10:58;7.33;;;4.30;;
49946;SDS011;35839;48.662;13.300;2022-09-21T07:13:28;5.17;;;3.57;;
49946;SDS011;35839;48.662;13.300;2022-09-21T07:15:53;10.35;;;4.20;;
49946;SDS011;35839;48.662;13.300;2022-09-21T07:18:19;8.27;;;4.73;;
49946;SDS011;35839;48.662;13.300;2022-09-21T07:20:45;6.33;;;4.43;;
49946;SDS011;35839;48.662;13.300;2022-09-21T07:23:13;7.87;;;4.50;;
49946;SDS011;35839;48.662;13.300;2022-09-21T07:25:43;16.20;;;4.97;;
49946;SDS011;35839;48.662;13.300;2022-09-21T07:28:10;22.70;;;5.43;;
49946;SDS011;35839;48.662;13.300;2022-09-21T07:30:36;23.03;;;5.30;;
49946;SDS011;35839;48.662;13.300;2022-09-21T07:33:03;6.37;;;4.37;;
49946;SDS011;35839;48.662;13.300;2022-09-21T07:35:29;10.33;;;5.13;;
49946;SDS011;35839;48.662;13.300;2022-09-21T07:37:58;6.63;;;4.93;;
49946;SDS011;35839;48.662;13.300;2022-09-21T07:40:27;6.50;;;4.60;;
49946;SDS011;35839;48.662;13.300;2022-09-21T07:43:00;5.57;;;4.10;;
49946;SDS011;35839;48.662;13.300;2022-09-21T07:45:26;6.27;;;4.60;;
49946;SDS011;35839;48.662;13.300;2022-09-21T07:47:52;5.33;;;3.87;;
49946;SDS011;35839;48.662;13.300;2022-09-21T07:50:19;4.80;;;3.10;;
49946;SDS011;35839;48.662;13.300;2022-09-21T07:52:44;6.17;;;4.37;;
49946;SDS011;35839;48.662;13.300;2022-09-21T07:55:10;5.83;;;4.00;;
49946;SDS011;35839;48.662;13.300;2022-09-21T07:57:35;6.23;;;3.80;;
49946;SDS011;35839;48.662;13.300;2022-09-21T08:00:19;5.80;;;4.30;;
49946;SDS011;35839;48.662;13.300;2022-09-21T08:02:44;5.13;;;3.90;;
49946;SDS011;35839;48.662;13.300;2022-09-21T08:05:10;6.03;;;4.03;;
49946;SDS011;35839;48.662;13.300;2022-09-21T08:07:35;8.43;;;4.20;;
49946;SDS011;35839;48.662;13.300;2022-09-21T08:10:00;5.20;;;3.93;;
49946;SDS011;35839;48.662;13.300;2022-09-21T08:12:26;5.53;;;4.23;;
49946;SDS011;35839;48.662;13.300;2022-09-21T08:14:51;4.33;;;3.70;;
49946;SDS011;35839;48.662;13.300;2022-09-21T08:17:16;5.80;;;3.73;;
49946;SDS011;35839;48.662;13.300;2022-09-21T08:19:41;7.47;;;4.53;;
49946;SDS011;35839;48.662;13.300;2022-09-21T08:22:07;9.73;;;5.77;;
49946;SDS011;35839;48.662;13.300;2022-09-21T08:24:32;12.33;;;7.87;;
49946;SDS011;35839;48.662;13.300;2022-09-21T08:26:59;9.27;;;6.97;;
49946;SDS011;35839;48.662;13.300;2022-09-21T08:29:24;7.33;;;5.33;;
49946;SDS011;35839;48.662;13.300;2022-09-21T08:31:50;8.73;;;4.87;;
49946;SDS011;35839;48.662;13.300;2022-09-21T08:34:17;6.20;;;4.83;;
49946;SDS011;35839;48.662;13.300;2022-09-21T08:36:43;9.73;;;4.90;;
49946;SDS011;35839;48.662;13.300;2022-09-21T08:39:09;8.03;;;5.23;;
49946;SDS011;35839;48.662;13.300;2022-09-21T08:41:53;6.07;;;3.80;;
49946;SDS011;35839;48.662;13.300;2022-09-21T08:44:23;5.07;;;3.90;;
49946;SDS011;35839;48.662;13.300;2022-09-21T08:46:59;6.80;;;4.63;;
49946;SDS011;35839;48.662;13.300;2022-09-21T08:49:27;11.03;;;3.87;;
49946;SDS011;35839;48.662;13.300;2022-09-21T08:51:56;6.30;;;4.40;;
49946;SDS011;35839;48.662;13.300;2022-09-21T08:54:27;5.00;;;3.77;;
49946;SDS011;35839;48.662;13.300;2022-09-21T08:56:58;7.10;;;4.60;;
49946;SDS011;35839;48.662;13.300;2022-09-21T08:59:24;8.73;;;5.73;;
49946;SDS011;35839;48.662;13.300;2022-09-21T09:07:39;9.77;;;6.47;;
49946;SDS011;35839;48.662;13.300;2022-09-21T09:18:54;9.40;;;6.70;;
49946;SDS011;35839;48.662;13.300;2022-09-21T09:21:25;9.57;;;5.97;;
49946;SDS011;35839;48.662;13.300;2022-09-21T09:24:01;9.05;;;6.45;;
49946;SDS011;35839;48.662;13.300;2022-09-21T09:26:35;6.40;;;5.60;;
49946;SDS011;35839;48.662;13.300;2022-09-21T09:31:38;7.17;;;5.63;;
49946;SDS011;35839;48.662;13.300;2022-09-21T09:34:11;6.63;;;4.87;;
49946;SDS011;35839;48.662;13.300;2022-09-21T09:36:46;8.00;;;6.10;;
49946;SDS011;35839;48.662;13.300;2022-09-21T09:39:15;8.30;;;5.40;;
49946;SDS011;35839;48.662;13.300;2022-09-21T09:50:10;9.83;;;5.70;;
49946;SDS011;35839;48.662;13.300;2022-09-21T09:52:44;7.30;;;5.70;;
49946;SDS011;35839;48.662;13.300;2022-09-21T09:55:14;7.30;;;5.97;;
49946;SDS011;35839;48.662;13.300;2022-09-21T09:57:46;8.50;;;6.00;;
49946;SDS011;35839;48.662;13.300;2022-09-21T10:00:13;6.43;;;5.27;;
49946;SDS011;35839;48.662;13.300;2022-09-21T10:02:51;8.25;;;5.35;;
49946;SDS011;35839;48.662;13.300;2022-09-21T10:05:36;8.33;;;5.37;;
49946;SDS011;35839;48.662;13.300;2022-09-21T10:08:02;8.97;;;5.67;;
49946;SDS011;35839;48.662;13.300;2022-09-21T10:13:04;6.73;;;5.57;;
49946;SDS011;35839;48.662;13.300;2022-09-21T10:15:58;8.07;;;6.07;;
49946;SDS011;35839;48.662;13.300;2022-09-21T10:18:28;8.77;;;6.30;;
49946;SDS011;35839;48.662;13.300;2022-09-21T10:21:02;9.63;;;6.27;;
49946;SDS011;35839;48.662;13.300;2022-09-21T10:23:31;7.57;;;5.90;;
49946;SDS011;35839;48.662;13.300;2022-09-21T10:25:59;7.10;;;5.53;;
49946;SDS011;35839;48.662;13.300;2022-09-21T10:28:27;13.15;;;8.00;;
49946;SDS011;35839;48.662;13.300;2022-09-21T10:31:38;6.87;;;5.40;;
49946;SDS011;35839;48.662;13.300;2022-09-21T10:36:31;19.73;;;10.40;;
49946;SDS011;35839;48.662;13.300;2022-09-21T10:41:36;8.38;;;5.72;;
49946;SDS011;35839;48.662;13.300;2022-09-21T10:44:02;7.93;;;4.95;;
49946;SDS011;35839;48.662;13.300;2022-09-21T10:46:32;7.03;;;5.45;;
49946;SDS011;35839;48.662;13.300;2022-09-21T10:48:58;10.00;;;5.32;;
49946;SDS011;35839;48.662;13.300;2022-09-21T10:51:28;9.23;;;5.90;;
49946;SDS011;35839;48.662;13.300;2022-09-21T10:53:54;6.78;;;4.78;;
49946;SDS011;35839;48.662;13.300;2022-09-21T10:56:21;6.50;;;4.28;;
49946;SDS011;35839;48.662;13.300;2022-09-21T11:01:41;7.95;;;5.32;;
49946;SDS011;35839;48.662;13.300;2022-09-21T11:04:10;21.90;;;7.18;;
49946;SDS011;35839;48.662;13.300;2022-09-21T11:06:43;9.05;;;5.75;;
49946;SDS011;35839;48.662;13.300;2022-09-21T11:09:20;8.63;;;5.75;;
49946;SDS011;35839;48.662;13.300;2022-09-21T11:14:48;6.70;;;4.85;;
49946;SDS011;35839;48.662;13.300;2022-09-21T11:20:24;8.15;;;5.15;;
49946;SDS011;35839;48.662;13.300;2022-09-21T11:25:59;9.50;;;4.30;;
49946;SDS011;35839;48.662;13.300;2022-09-21T11:28:48;7.10;;;4.28;;
49946;SDS011;35839;48.662;13.300;2022-09-21T11:34:04;5.45;;;3.70;;
49946;SDS011;35839;48.662;13.300;2022-09-21T11:48:21;3.45;;;2.67;;
49946;SDS011;35839;48.662;13.300;2022-09-21T11:57:05;9.10;;;3.00;;
49946;SDS011;35839;48.662;13.300;2022-09-21T12:16:41;5.28;;;2.67;;
49946;SDS011;35839;48.662;13.300;2022-09-21T12:21:54;3.78;;;2.30;;
49946;SDS011;35839;48.662;13.300;2022-09-21T12:24:32;4.85;;;2.47;;
49946;SDS011;35839;48.662;13.300;2022-09-21T12:27:07;5.05;;;2.50;;
49946;SDS011;35839;48.662;13.300;2022-09-21T12:29:48;3.03;;;2.50;;
49946;SDS011;35839;48.662;13.300;2022-09-21T12:38:09;3.92;;;2.17;;
49946;SDS011;35839;48.662;13.300;2022-09-21T12:40:43;4.68;;;2.17;;
49946;SDS011;35839;48.662;13.300;2022-09-21T12:45:47;2.63;;;1.90;;
49946;SDS011;35839;48.662;13.300;2022-09-21T12:48:30;3.05;;;1.63;;
49946;SDS011;35839;48.662;13.300;2022-09-21T12:53:36;2.42;;;2.00;;
49946;SDS011;35839;48.662;13.300;2022-09-21T12:56:10;2.28;;;1.73;;
49946;SDS011;35839;48.662;13.300;2022-09-21T13:01:43;2.92;;;1.50;;
49946;SDS011;35839;48.662;13.300;2022-09-21T13:04:33;2.88;;;1.73;;
49946;SDS011;35839;48.662;13.300;2022-09-21T13:09:44;4.30;;;1.50;;
49946;SDS011;35839;48.662;13.300;2022-09-21T13:12:20;8.00;;;4.60;;
49946;SDS011;35839;48.662;13.300;2022-09-21T13:14:50;3.70;;;2.08;;
49946;SDS011;35839;48.662;13.300;2022-09-21T13:17:22;7.00;;;2.20;;
49946;SDS011;35839;48.662;13.300;2022-09-21T13:20:04;4.50;;;2.08;;
49946;SDS011;35839;48.662;13.300;2022-09-21T13:22:39;2.75;;;2.08;;
49946;SDS011;35839;48.662;13.300;2022-09-21T13:30:36;3.90;;;2.80;;
49946;SDS011;35839;48.662;13.300;2022-09-21T13:33:27;4.90;;;2.38;;
49946;SDS011;35839;48.662;13.300;2022-09-21T13:36:03;2.78;;;2.20;;
49946;SDS011;35839;48.662;13.300;2022-09-21T13:55:00;3.40;;;1.60;;
49946;SDS011;35839;48.662;13.300;2022-09-21T13:57:30;1.83;;;1.20;;
49946;SDS011;35839;48.662;13.300;2022-09-21T14:02:32;1.50;;;1.10;;
49946;SDS011;35839;48.662;13.300;2022-09-21T14:05:03;1.52;;;1.15;;
49946;SDS011;35839;48.662;13.300;2022-09-21T14:07:47;1.40;;;1.05;;
49946;SDS011;35839;48.662;13.300;2022-09-21T14:10:22;1.83;;;0.98;;
49946;SDS011;35839;48.662;13.300;2022-09-21T14:12:49;1.00;;;0.75;;
49946;SDS011;35839;48.662;13.300;2022-09-21T14:17:41;0.40;;;0.40;;
49946;SDS011;35839;48.662;13.300;2022-09-21T14:23:10;1.38;;;0.43;;
49946;SDS011;35839;48.662;13.300;2022-09-21T14:25:54;0.88;;;0.60;;
49946;SDS011;35839;48.662;13.300;2022-09-21T14:29:04;0.55;;;0.38;;
49946;SDS011;35839;48.662;13.300;2022-09-21T14:31:20;1.70;;;0.70;;
49946;SDS011;35839;48.662;13.300;2022-09-21T14:33:51;0.77;;;0.43;;
49946;SDS011;35839;48.662;13.300;2022-09-21T14:36:23;0.30;;;0.30;;
49946;SDS011;35839;48.662;13.300;2022-09-21T14:39:00;1.25;;;1.02;;
49946;SDS011;35839;48.662;13.300;2022-09-21T14:41:31;0.63;;;0.60;;
49946;SDS011;35839;48.662;13.300;2022-09-21T14:44:02;2.83;;;1.40;;
49946;SDS011;35839;48.662;13.300;2022-09-21T15:02:47;0.55;;;0.55;;
49946;SDS011;35839;48.662;13.300;2022-09-21T15:05:34;0.90;;;0.50;;
49946;SDS011;35839;48.662;13.300;2022-09-21T15:16:44;1.42;;;0.80;;
49946;SDS011;35839;48.662;13.300;2022-09-21T15:21:41;0.60;;;0.60;;
49946;SDS011;35839;48.662;13.300;2022-09-21T15:24:09;13.73;;;7.57;;
49946;SDS011;35839;48.662;13.300;2022-09-21T15:26:47;4.20;;;2.78;;
49946;SDS011;35839;48.662;13.300;2022-09-21T15:29:25;11.77;;;2.60;;
49946;SDS011;35839;48.662;13.300;2022-09-21T15:31:53;7.35;;;3.47;;
49946;SDS011;35839;48.662;13.300;2022-09-21T15:34:19;3.08;;;1.80;;
49946;SDS011;35839;48.662;13.300;2022-09-21T15:36:46;4.85;;;3.05;;
49946;SDS011;35839;48.662;13.300;2022-09-21T15:39:28;8.77;;;2.08;;
49946;SDS011;35839;48.662;13.300;2022-09-21T15:42:04;2.50;;;1.23;;
49946;SDS011;35839;48.662;13.300;2022-09-21T15:44:41;1.90;;;1.40;;
49946;SDS011;35839;48.662;13.300;2022-09-21T15:47:09;6.07;;;2.40;;
49946;SDS011;35839;48.662;13.300;2022-09-21T15:49:36;1.25;;;1.15;;
49946;SDS011;35839;48.662;13.300;2022-09-21T16:00:02;6.03;;;1.60;;
49946;SDS011;35839;48.662;13.300;2022-09-21T16:02:33;8.23;;;3.47;;
49946;SDS011;35839;48.662;13.300;2022-09-21T16:05:01;25.15;;;12.73;;
49946;SDS011;35839;48.662;13.300;2022-09-21T16:07:31;8.95;;;5.00;;
49946;SDS011;35839;48.662;13.300;2022-09-21T16:10:02;2.63;;;1.52;;
49946;SDS011;35839;48.662;13.300;2022-09-21T16:12:50;1.70;;;1.15;;
49946;SDS011;35839;48.662;13.300;2022-09-21T16:15:17;2.42;;;1.05;;
49946;SDS011;35839;48.662;13.300;2022-09-21T16:17:52;3.35;;;1.15;;
49946;SDS011;35839;48.662;13.300;2022-09-21T16:20:19;2.67;;;1.00;;
49946;SDS011;35839;48.662;13.300;2022-09-21T16:22:48;1.98;;;1.13;;
49946;SDS011;35839;48.662;13.300;2022-09-21T16:25:28;1.80;;;1.08;;
49946;SDS011;35839;48.662;13.300;2022-09-21T16:27:58;1.75;;;1.20;;
49946;SDS011;35839;48.662;13.300;2022-09-21T16:30:49;2.15;;;1.23;;
49946;SDS011;35839;48.662;13.300;2022-09-21T16:36:32;3.72;;;1.90;;
49946;SDS011;35839;48.662;13.300;2022-09-21T16:39:00;4.55;;;1.50;;
49946;SDS011;35839;48.662;13.300;2022-09-21T16:42:12;2.53;;;1.60;;
49946;SDS011;35839;48.662;13.300;2022-09-21T16:44:25;4.35;;;2.40;;
49946;SDS011;35839;48.662;13.300;2022-09-21T16:46:58;2.30;;;1.80;;
49946;SDS011;35839;48.662;13.300;2022-09-21T16:49:26;2.63;;;1.60;;
49946;SDS011;35839;48.662;13.300;2022-09-21T16:51:58;2.05;;;1.63;;
49946;SDS011;35839;48.662;13.300;2022-09-21T16:54:23;2.22;;;1.50;;
49946;SDS011;35839;48.662;13.300;2022-09-21T16:56:51;2.80;;;1.42;;
49946;SDS011;35839;48.662;13.300;2022-09-21T16:59:19;3.50;;;1.98;;
49946;SDS011;35839;48.662;13.300;2022-09-21T17:01:47;7.30;;;1.88;;
49946;SDS011;35839;48.662;13.300;2022-09-21T17:04:14;3.72;;;1.70;;
49946;SDS011;35839;48.662;13.300;2022-09-21T17:06:41;2.55;;;1.88;;
49946;SDS011;35839;48.662;13.300;2022-09-21T17:09:11;4.22;;;2.10;;
49946;SDS011;35839;48.662;13.300;2022-09-21T17:11:41;11.95;;;3.10;;
49946;SDS011;35839;48.662;13.300;2022-09-21T17:14:09;2.78;;;1.63;;
49946;SDS011;35839;48.662;13.300;2022-09-21T17:16:37;5.32;;;2.22;;
49946;SDS011;35839;48.662;13.300;2022-09-21T17:19:02;16.05;;;3.22;;
49946;SDS011;35839;48.662;13.300;2022-09-21T17:21:27;7.25;;;2.60;;
49946;SDS011;35839;48.662;13.300;2022-09-21T17:23:53;2.75;;;2.10;;
49946;SDS011;35839;48.662;13.300;2022-09-21T17:26:19;3.15;;;2.20;;
49946;SDS011;35839;48.662;13.300;2022-09-21T17:28:45;3.65;;;1.92;;
49946;SDS011;35839;48.662;13.300;2022-09-21T17:31:11;5.35;;;2.17;;
49946;SDS011;35839;48.662;13.300;2022-09-21T17:33:38;3.17;;;2.13;;
49946;SDS011;35839;48.662;13.300;2022-09-21T17:36:04;5.95;;;1.65;;
49946;SDS011;35839;48.662;13.300;2022-09-21T17:38:31;4.15;;;1.63;;
49946;SDS011;35839;48.662;13.300;2022-09-21T17:40:59;3.03;;;2.08;;
49946;SDS011;35839;48.662;13.300;2022-09-21T17:43:36;6.97;;;2.40;;
49946;SDS011;35839;48.662;13.300;2022-09-21T17:46:11;2.47;;;1.87;;
49946;SDS011;35839;48.662;13.300;2022-09-21T17:48:44;1.80;;;1.67;;
49946;SDS011;35839;48.662;13.300;2022-09-21T17:51:10;2.37;;;2.17;;
49946;SDS011;35839;48.662;13.300;2022-09-21T17:53:36;2.87;;;2.27;;
49946;SDS011;35839;48.662;13.300;2022-09-21T17:56:21;3.03;;;1.77;;
49946;SDS011;35839;48.662;13.300;2022-09-21T17:59:05;4.30;;;2.63;;
49946;SDS011;35839;48.662;13.300;2022-09-21T18:01:39;2.80;;;1.93;;
49946;SDS011;35839;48.662;13.300;2022-09-21T18:04:04;2.70;;;2.00;;
49946;SDS011;35839;48.662;13.300;2022-09-21T18:06:31;2.37;;;2.00;;
49946;SDS011;35839;48.662;13.300;2022-09-21T18:08:58;5.87;;;2.00;;
49946;SDS011;35839;48.662;13.300;2022-09-21T18:19:22;3.20;;;2.03;;
49946;SDS011;35839;48.662;13.300;2022-09-21T18:21:59;4.43;;;2.60;;
49946;SDS011;35839;48.662;13.300;2022-09-21T18:24:38;3.80;;;2.10;;
49946;SDS011;35839;48.662;13.300;2022-09-21T18:27:03;2.60;;;2.00;;
49946;SDS011;35839;48.662;13.300;2022-09-21T18:29:30;3.60;;;2.27;;
49946;SDS011;35839;48.662;13.300;2022-09-21T18:35:07;3.33;;;2.60;;
49946;SDS011;35839;48.662;13.300;2022-09-21T18:51:05;3.20;;;2.30;;
49946;SDS011;35839;48.662;13.300;2022-09-21T18:53:54;9.03;;;2.23;;
49946;SDS011;35839;48.662;13.300;2022-09-21T18:56:24;1.70;;;1.40;;
49946;SDS011;35839;48.662;13.300;2022-09-21T18:58:55;8.30;;;2.63;;
49946;SDS011;35839;48.662;13.300;2022-09-21T19:01:22;4.17;;;2.23;;
49946;SDS011;35839;48.662;13.300;2022-09-21T19:03:48;2.40;;;1.80;;
49946;SDS011;35839;48.662;13.300;2022-09-21T19:17:43;4.00;;;2.73;;
49946;SDS011;35839;48.662;13.300;2022-09-21T19:23:10;2.67;;;2.20;;
49946;SDS011;35839;48.662;13.300;2022-09-21T19:28:57;3.13;;;2.23;;
49946;SDS011;35839;48.662;13.300;2022-09-21T19:31:42;3.60;;;2.30;;
49946;SDS011;35839;48.662;13.300;2022-09-21T19:34:15;4.43;;;2.00;;
49946;SDS011;35839;48.662;13.300;2022-09-21T19:36:42;2.57;;;1.97;;
49946;SDS011;35839;48.662;13.300;2022-09-21T19:39:09;4.10;;;2.00;;
49946;SDS011;35839;48.662;13.300;2022-09-21T19:49:48;5.43;;;2.20;;
49946;SDS011;35839;48.662;13.300;2022-09-21T19:52:18;3.10;;;2.27;;
49946;SDS011;35839;48.662;13.300;2022-09-21T19:54:52;3.00;;;2.30;;
49946;SDS011;35839;48.662;13.300;2022-09-21T19:57:36;4.30;;;2.90;;
49946;SDS011;35839;48.662;13.300;2022-09-21T20:00:36;3.17;;;2.33;;
49946;SDS011;35839;48.662;13.300;2022-09-21T20:05:48;2.67;;;2.17;;
49946;SDS011;35839;48.662;13.300;2022-09-21T20:08:24;2.55;;;2.22;;
49946;SDS011;35839;48.662;13.300;2022-09-21T20:11:12;5.20;;;2.03;;
49946;SDS011;35839;48.662;13.300;2022-09-21T20:19:16;3.07;;;2.20;;
49946;SDS011;35839;48.662;13.300;2022-09-21T20:21:52;3.23;;;2.13;;
49946;SDS011;35839;48.662;13.300;2022-09-21T20:24:26;2.97;;;1.67;;
49946;SDS011;35839;48.662;13.300;2022-09-21T20:26:55;2.57;;;1.70;;
49946;SDS011;35839;48.662;13.300;2022-09-21T20:29:20;5.77;;;2.30;;
49946;SDS011;35839;48.662;13.300;2022-09-21T20:31:47;2.33;;;1.80;;
49946;SDS011;35839;48.662;13.300;2022-09-21T20:34:14;3.40;;;2.05;;
49946;SDS011;35839;48.662;13.300;2022-09-21T20:36:40;3.10;;;1.90;;
49946;SDS011;35839;48.662;13.300;2022-09-21T20:39:05;2.10;;;1.63;;
49946;SDS011;35839;48.662;13.300;2022-09-21T20:41:30;3.20;;;2.00;;
49946;SDS011;35839;48.662;13.300;2022-09-21T20:43:56;4.43;;;2.30;;
49946;SDS011;35839;48.662;13.300;2022-09-21T20:46:23;4.20;;;2.57;;
49946;SDS011;35839;48.662;13.300;2022-09-21T20:48:48;5.37;;;2.23;;
49946;SDS011;35839;48.662;13.300;2022-09-21T20:51:19;5.07;;;2.40;;
49946;SDS011;35839;48.662;13.300;2022-09-21T20:53:44;2.87;;;2.13;;
49946;SDS011;35839;48.662;13.300;2022-09-21T20:56:09;2.57;;;2.07;;
49946;SDS011;35839;48.662;13.300;2022-09-21T20:58:35;3.57;;;2.27;;
49946;SDS011;35839;48.662;13.300;2022-09-21T21:01:01;3.07;;;2.33;;
49946;SDS011;35839;48.662;13.300;2022-09-21T21:03:28;3.60;;;2.13;;
49946;SDS011;35839;48.662;13.300;2022-09-21T21:06:04;3.43;;;2.33;;
49946;SDS011;35839;48.662;13.300;2022-09-21T21:08:31;4.13;;;2.67;;
49946;SDS011;35839;48.662;13.300;2022-09-21T21:10:56;2.70;;;2.43;;
49946;SDS011;35839;48.662;13.300;2022-09-21T21:13:21;4.27;;;3.50;;
49946;SDS011;35839;48.662;13.300;2022-09-21T21:15:51;5.53;;;3.33;;
49946;SDS011;35839;48.662;13.300;2022-09-21T21:18:16;5.83;;;4.30;;
49946;SDS011;35839;48.662;13.300;2022-09-21T21:20:42;7.17;;;3.40;;
49946;SDS011;35839;48.662;13.300;2022-09-21T21:23:07;4.60;;;3.53;;
49946;SDS011;35839;48.662;13.300;2022-09-21T21:25:32;4.07;;;3.20;;
49946;SDS011;35839;48.662;13.300;2022-09-21T21:27:58;5.17;;;2.87;;
49946;SDS011;35839;48.662;13.300;2022-09-21T21:30:23;3.43;;;2.40;;
49946;SDS011;35839;48.662;13.300;2022-09-21T21:32:49;3.70;;;2.43;;
49946;SDS011;35839;48.662;13.300;2022-09-21T21:35:16;4.03;;;2.40;;
49946;SDS011;35839;48.662;13.300;2022-09-21T21:37:41;3.57;;;2.37;;
49946;SDS011;35839;48.662;13.300;2022-09-21T21:40:07;3.77;;;2.00;;
49946;SDS011;35839;48.662;13.300;2022-09-21T21:42:33;4.13;;;2.60;;
49946;SDS011;35839;48.662;13.300;2022-09-21T21:44:58;2.67;;;2.20;;
49946;SDS011;35839;48.662;13.300;2022-09-21T21:47:23;5.77;;;2.17;;
49946;SDS011;35839;48.662;13.300;2022-09-21T21:49:49;6.00;;;2.40;;
49946;SDS011;35839;48.662;13.300;2022-09-21T21:52:14;7.63;;;3.13;;
49946;SDS011;35839;48.662;13.300;2022-09-21T21:54:39;5.70;;;2.70;;
49946;SDS011;35839;48.662;13.300;2022-09-21T21:57:05;3.80;;;2.63;;
49946;SDS011;35839;48.662;13.300;2022-09-21T21:59:30;5.90;;;2.50;;
49946;SDS011;35839;48.662;13.300;2022-09-21T22:01:56;3.77;;;2.17;;
49946;SDS011;35839;48.662;13.300;2022-09-21T22:04:21;3.30;;;2.30;;
49946;SDS011;35839;48.662;13.300;2022-09-21T22:06:47;5.60;;;2.40;;
49946;SDS011;35839;48.662;13.300;2022-09-21T22:09:13;7.63;;;3.10;;
